sensor_id;sensor_type;location;lat;lon;timestamp;pressure;altitude;pressure_sealevel;temperature;humidity
8051;BME280;4068;42.158;24.732;2022-07-29T00:00:10;99668.91;;;23.36;78.22
8051;BME280;4068;42.158;24.732;2022-07-29T00:02:36;99663.50;;;23.36;78.85
8051;BME280;4068;42.158;24.732;2022-07-29T00:05:03;99652.25;;;23.25;79.39
8051;BME280;4068;42.158;24.732;2022-07-29T00:07:28;99661.88;;;23.35;79.07
8051;BME280;4068;42.158;24.732;2022-07-29T00:09:54;99669.34;;;23.33;79.36
8051;BME280;4068;42.158;24.732;2022-07-29T00:12:21;99667.91;;;23.30;79.65
8051;BME280;4068;42.158;24.732;2022-07-29T00:14:46;99673.09;;;23.32;79.87
8051;BME280;4068;42.158;24.732;2022-07-29T00:17:12;99676.19;;;23.22;80.99
8051;BME280;4068;42.158;24.732;2022-07-29T00:19:37;99668.03;;;23.15;81.17
8051;BME280;4068;42.158;24.732;2022-07-29T00:22:03;99639.00;;;22.96;81.56
8051;BME280;4068;42.158;24.732;2022-07-29T00:24:28;99674.03;;;23.10;81.89
8051;BME280;4068;42.158;24.732;2022-07-29T00:26:53;99665.06;;;23.03;82.93
8051;BME280;4068;42.158;24.732;2022-07-29T00:29:19;99670.69;;;23.02;82.91
8051;BME280;4068;42.158;24.732;2022-07-29T00:31:44;99673.16;;;22.97;83.82
8051;BME280;4068;42.158;24.732;2022-07-29T00:34:10;99644.78;;;22.79;84.73
8051;BME280;4068;42.158;24.732;2022-07-29T00:36:54;99673.97;;;22.97;84.16
8051;BME280;4068;42.158;24.732;2022-07-29T00:39:20;99653.09;;;22.84;84.68
8051;BME280;4068;42.158;24.732;2022-07-29T00:41:45;99644.78;;;22.86;84.88
8051;BME280;4068;42.158;24.732;2022-07-29T00:44:11;99636.88;;;22.78;85.31
8051;BME280;4068;42.158;24.732;2022-07-29T00:46:36;99670.19;;;22.85;85.75
8051;BME280;4068;42.158;24.732;2022-07-29T00:49:02;99653.69;;;22.73;85.26
8051;BME280;4068;42.158;24.732;2022-07-29T00:51:27;99667.84;;;22.75;86.69
8051;BME280;4068;42.158;24.732;2022-07-29T00:53:53;99673.88;;;22.77;86.91
8051;BME280;4068;42.158;24.732;2022-07-29T00:56:19;99665.16;;;22.75;87.08
8051;BME280;4068;42.158;24.732;2022-07-29T00:58:46;99667.00;;;22.74;87.24
8051;BME280;4068;42.158;24.732;2022-07-29T01:01:12;99661.78;;;22.73;88.20
8051;BME280;4068;42.158;24.732;2022-07-29T01:03:37;99664.69;;;22.71;87.94
8051;BME280;4068;42.158;24.732;2022-07-29T01:06:03;99668.25;;;22.72;87.68
8051;BME280;4068;42.158;24.732;2022-07-29T01:08:31;99673.22;;;22.68;88.18
8051;BME280;4068;42.158;24.732;2022-07-29T01:10:58;99665.31;;;22.67;88.59
8051;BME280;4068;42.158;24.732;2022-07-29T01:13:25;99665.50;;;22.65;88.96
8051;BME280;4068;42.158;24.732;2022-07-29T01:15:56;99676.91;;;22.61;89.33
8051;BME280;4068;42.158;24.732;2022-07-29T01:18:34;99679.22;;;22.64;89.94
8051;BME280;4068;42.158;24.732;2022-07-29T01:23:48;99676.13;;;22.67;90.47
8051;BME280;4068;42.158;24.732;2022-07-29T01:30:05;99668.66;;;22.69;90.76
8051;BME280;4068;42.158;24.732;2022-07-29T01:34:39;99670.56;;;22.75;90.85
8051;BME280;4068;42.158;24.732;2022-07-29T01:37:15;99665.09;;;22.68;91.39
8051;BME280;4068;42.158;24.732;2022-07-29T01:39:46;99668.66;;;22.75;90.13
8051;BME280;4068;42.158;24.732;2022-07-29T01:42:26;99665.09;;;22.68;89.28
8051;BME280;4068;42.158;24.732;2022-07-29T01:45:06;99663.56;;;22.52;89.53
8051;BME280;4068;42.158;24.732;2022-07-29T01:47:41;99656.72;;;22.28;90.62
8051;BME280;4068;42.158;24.732;2022-07-29T01:50:12;99659.72;;;22.12;92.71
8051;BME280;4068;42.158;24.732;2022-07-29T01:52:46;99652.47;;;22.12;91.62
8051;BME280;4068;42.158;24.732;2022-07-29T01:55:15;99654.97;;;22.14;91.11
8051;BME280;4068;42.158;24.732;2022-07-29T01:57:44;99664.81;;;22.00;92.17
8051;BME280;4068;42.158;24.732;2022-07-29T02:00:11;99668.94;;;21.96;92.22
8051;BME280;4068;42.158;24.732;2022-07-29T02:02:39;99668.56;;;21.77;92.52
8051;BME280;4068;42.158;24.732;2022-07-29T02:05:07;99671.38;;;21.69;93.55
8051;BME280;4068;42.158;24.732;2022-07-29T02:07:36;99651.19;;;21.43;95.96
8051;BME280;4068;42.158;24.732;2022-07-29T02:10:03;99634.59;;;21.25;96.96
8051;BME280;4068;42.158;24.732;2022-07-29T02:12:30;99656.38;;;21.45;96.60
8051;BME280;4068;42.158;24.732;2022-07-29T02:14:59;99674.81;;;21.41;96.25
8051;BME280;4068;42.158;24.732;2022-07-29T02:17:31;99668.72;;;21.32;96.22
8051;BME280;4068;42.158;24.732;2022-07-29T02:20:00;99657.84;;;21.26;95.92
8051;BME280;4068;42.158;24.732;2022-07-29T02:22:29;99665.66;;;21.20;96.84
8051;BME280;4068;42.158;24.732;2022-07-29T02:24:55;99656.84;;;21.27;94.92
8051;BME280;4068;42.158;24.732;2022-07-29T02:27:22;99660.53;;;21.26;95.95
8051;BME280;4068;42.158;24.732;2022-07-29T02:29:50;99652.56;;;21.17;95.97
8051;BME280;4068;42.158;24.732;2022-07-29T02:32:17;99665.78;;;21.12;97.83
8051;BME280;4068;42.158;24.732;2022-07-29T02:34:45;99659.09;;;21.08;96.35
8051;BME280;4068;42.158;24.732;2022-07-29T02:37:12;99654.00;;;20.98;96.79
8051;BME280;4068;42.158;24.732;2022-07-29T02:39:40;99653.28;;;20.90;96.90
8051;BME280;4068;42.158;24.732;2022-07-29T02:42:11;99629.13;;;20.81;98.07
8051;BME280;4068;42.158;24.732;2022-07-29T02:44:37;99650.41;;;20.91;97.27
8051;BME280;4068;42.158;24.732;2022-07-29T02:57:22;99639.16;;;20.43;100.00
8051;BME280;4068;42.158;24.732;2022-07-29T02:59:53;99616.97;;;20.26;100.00
8051;BME280;4068;42.158;24.732;2022-07-29T03:02:22;99660.44;;;20.52;100.00
8051;BME280;4068;42.158;24.732;2022-07-29T03:04:50;99655.69;;;20.55;100.00
8051;BME280;4068;42.158;24.732;2022-07-29T03:07:19;99651.31;;;20.53;99.38
8051;BME280;4068;42.158;24.732;2022-07-29T03:09:46;99659.22;;;20.55;99.73
8051;BME280;4068;42.158;24.732;2022-07-29T03:12:12;99663.94;;;20.53;99.56
8051;BME280;4068;42.158;24.732;2022-07-29T03:14:38;99663.75;;;20.55;99.83
8051;BME280;4068;42.158;24.732;2022-07-29T03:17:03;99662.56;;;20.57;99.47
8051;BME280;4068;42.158;24.732;2022-07-29T03:19:29;99669.44;;;20.60;99.66
8051;BME280;4068;42.158;24.732;2022-07-29T03:21:57;99668.88;;;20.64;98.73
8051;BME280;4068;42.158;24.732;2022-07-29T03:24:34;99669.84;;;20.72;97.49
8051;BME280;4068;42.158;24.732;2022-07-29T03:27:00;99659.78;;;20.65;96.56
8051;BME280;4068;42.158;24.732;2022-07-29T03:29:26;99676.91;;;20.73;95.79
8051;BME280;4068;42.158;24.732;2022-07-29T03:31:52;99675.91;;;20.74;96.12
8051;BME280;4068;42.158;24.732;2022-07-29T03:34:18;99683.13;;;20.88;94.77
8051;BME280;4068;42.158;24.732;2022-07-29T03:36:43;99673.69;;;21.14;93.78
8051;BME280;4068;42.158;24.732;2022-07-29T03:39:10;99686.06;;;21.45;91.18
8051;BME280;4068;42.158;24.732;2022-07-29T03:41:38;99691.63;;;21.58;91.54
8051;BME280;4068;42.158;24.732;2022-07-29T03:44:07;99689.06;;;21.71;90.60
8051;BME280;4068;42.158;24.732;2022-07-29T03:46:34;99689.22;;;21.85;90.83
8051;BME280;4068;42.158;24.732;2022-07-29T03:49:03;99686.22;;;22.01;89.39
8051;BME280;4068;42.158;24.732;2022-07-29T03:51:29;99682.31;;;22.04;89.17
8051;BME280;4068;42.158;24.732;2022-07-29T03:53:55;99692.56;;;22.15;89.76
8051;BME280;4068;42.158;24.732;2022-07-29T03:56:22;99684.53;;;22.22;89.26
8051;BME280;4068;42.158;24.732;2022-07-29T03:58:52;99680.47;;;22.33;89.61
8051;BME280;4068;42.158;24.732;2022-07-29T04:01:19;99675.38;;;22.45;88.31
8051;BME280;4068;42.158;24.732;2022-07-29T04:03:45;99672.16;;;22.34;89.16
8051;BME280;4068;42.158;24.732;2022-07-29T04:06:11;99691.81;;;22.50;89.50
8051;BME280;4068;42.158;24.732;2022-07-29T04:08:37;99667.28;;;22.51;88.37
8051;BME280;4068;42.158;24.732;2022-07-29T04:11:04;99695.75;;;22.82;87.88
8051;BME280;4068;42.158;24.732;2022-07-29T04:13:30;99703.09;;;22.95;86.25
8051;BME280;4068;42.158;24.732;2022-07-29T04:15:56;99695.09;;;22.80;87.29
8051;BME280;4068;42.158;24.732;2022-07-29T04:18:22;99689.69;;;22.80;86.98
8051;BME280;4068;42.158;24.732;2022-07-29T04:20:47;99700.59;;;22.93;86.21
8051;BME280;4068;42.158;24.732;2022-07-29T04:23:13;99693.09;;;22.89;87.56
8051;BME280;4068;42.158;24.732;2022-07-29T04:25:39;99706.63;;;22.96;87.96
8051;BME280;4068;42.158;24.732;2022-07-29T04:28:05;99702.94;;;23.03;87.46
8051;BME280;4068;42.158;24.732;2022-07-29T04:30:32;99701.84;;;22.98;86.83
8051;BME280;4068;42.158;24.732;2022-07-29T04:32:58;99703.84;;;22.82;88.84
8051;BME280;4068;42.158;24.732;2022-07-29T04:35:24;99697.63;;;22.88;88.68
8051;BME280;4068;42.158;24.732;2022-07-29T04:37:49;99691.66;;;23.00;87.72
8051;BME280;4068;42.158;24.732;2022-07-29T04:40:14;99698.09;;;22.99;87.91
8051;BME280;4068;42.158;24.732;2022-07-29T04:42:40;99686.47;;;22.98;87.58
8051;BME280;4068;42.158;24.732;2022-07-29T04:45:06;99705.09;;;23.15;87.07
8051;BME280;4068;42.158;24.732;2022-07-29T04:47:31;99705.09;;;23.15;87.27
8051;BME280;4068;42.158;24.732;2022-07-29T04:49:57;99709.72;;;23.27;86.42
8051;BME280;4068;42.158;24.732;2022-07-29T04:52:22;99715.41;;;23.46;85.57
8051;BME280;4068;42.158;24.732;2022-07-29T04:54:48;99713.91;;;23.43;84.28
8051;BME280;4068;42.158;24.732;2022-07-29T04:57:14;99682.69;;;23.41;83.76
8051;BME280;4068;42.158;24.732;2022-07-29T04:59:39;99716.25;;;23.67;83.18
8051;BME280;4068;42.158;24.732;2022-07-29T05:02:05;99711.09;;;23.85;81.66
8051;BME280;4068;42.158;24.732;2022-07-29T05:04:30;99715.50;;;24.00;80.82
8051;BME280;4068;42.158;24.732;2022-07-29T05:06:56;99719.69;;;24.09;79.09
8051;BME280;4068;42.158;24.732;2022-07-29T05:09:21;99719.88;;;24.14;79.36
8051;BME280;4068;42.158;24.732;2022-07-29T05:11:47;99717.59;;;24.24;78.77
8051;BME280;4068;42.158;24.732;2022-07-29T05:14:12;99715.94;;;24.30;78.73
8051;BME280;4068;42.158;24.732;2022-07-29T05:16:38;99701.13;;;24.26;78.77
8051;BME280;4068;42.158;24.732;2022-07-29T05:19:05;99723.84;;;24.45;78.02
8051;BME280;4068;42.158;24.732;2022-07-29T05:21:30;99726.34;;;24.53;77.78
8051;BME280;4068;42.158;24.732;2022-07-29T05:23:56;99712.78;;;24.46;77.82
8051;BME280;4068;42.158;24.732;2022-07-29T05:26:21;99729.22;;;24.58;78.20
8051;BME280;4068;42.158;24.732;2022-07-29T05:28:47;99715.06;;;24.70;76.93
8051;BME280;4068;42.158;24.732;2022-07-29T05:31:12;99711.53;;;24.76;75.38
8051;BME280;4068;42.158;24.732;2022-07-29T05:33:40;99724.16;;;24.95;74.94
8051;BME280;4068;42.158;24.732;2022-07-29T05:36:06;99726.63;;;25.10;73.75
8051;BME280;4068;42.158;24.732;2022-07-29T05:38:33;99710.78;;;25.07;73.02
8051;BME280;4068;42.158;24.732;2022-07-29T05:40:58;99726.34;;;25.25;72.92
8051;BME280;4068;42.158;24.732;2022-07-29T05:43:25;99730.31;;;25.36;72.18
8051;BME280;4068;42.158;24.732;2022-07-29T05:45:52;99729.88;;;25.39;71.36
8051;BME280;4068;42.158;24.732;2022-07-29T05:48:17;99732.81;;;25.38;72.56
8051;BME280;4068;42.158;24.732;2022-07-29T05:50:43;99732.13;;;25.49;72.31
8051;BME280;4068;42.158;24.732;2022-07-29T05:53:08;99744.13;;;25.66;71.82
8051;BME280;4068;42.158;24.732;2022-07-29T05:55:33;99745.38;;;25.71;70.80
8051;BME280;4068;42.158;24.732;2022-07-29T05:57:59;99752.38;;;25.85;70.32
8051;BME280;4068;42.158;24.732;2022-07-29T06:00:24;99724.50;;;25.71;70.91
8051;BME280;4068;42.158;24.732;2022-07-29T06:02:50;99751.63;;;26.10;69.81
8051;BME280;4068;42.158;24.732;2022-07-29T06:05:15;99751.97;;;26.20;69.14
8051;BME280;4068;42.158;24.732;2022-07-29T06:07:41;99750.25;;;26.26;71.05
8051;BME280;4068;42.158;24.732;2022-07-29T06:10:06;99748.09;;;26.34;71.06
8051;BME280;4068;42.158;24.732;2022-07-29T06:12:32;99741.59;;;26.10;71.36
8051;BME280;4068;42.158;24.732;2022-07-29T06:14:57;99747.13;;;26.22;70.65
8051;BME280;4068;42.158;24.732;2022-07-29T06:17:23;99749.63;;;26.49;69.61
8051;BME280;4068;42.158;24.732;2022-07-29T06:19:49;99757.06;;;26.35;70.81
8051;BME280;4068;42.158;24.732;2022-07-29T06:22:17;99745.34;;;26.60;69.81
8051;BME280;4068;42.158;24.732;2022-07-29T06:24:43;99749.78;;;26.79;68.85
8051;BME280;4068;42.158;24.732;2022-07-29T06:27:10;99753.94;;;26.82;68.72
8051;BME280;4068;42.158;24.732;2022-07-29T06:29:35;99747.78;;;26.68;68.54
8051;BME280;4068;42.158;24.732;2022-07-29T06:32:01;99754.50;;;26.65;69.73
8051;BME280;4068;42.158;24.732;2022-07-29T06:34:27;99746.47;;;26.52;70.10
8051;BME280;4068;42.158;24.732;2022-07-29T06:36:53;99743.16;;;26.75;69.42
8051;BME280;4068;42.158;24.732;2022-07-29T06:39:18;99743.69;;;26.84;68.32
8051;BME280;4068;42.158;24.732;2022-07-29T06:41:47;99725.38;;;26.91;68.17
8051;BME280;4068;42.158;24.732;2022-07-29T06:44:14;99741.31;;;26.87;68.58
8051;BME280;4068;42.158;24.732;2022-07-29T06:46:39;99729.16;;;26.72;68.72
8051;BME280;4068;42.158;24.732;2022-07-29T06:49:04;99738.53;;;26.94;67.73
8051;BME280;4068;42.158;24.732;2022-07-29T06:51:30;99735.50;;;27.21;66.92
8051;BME280;4068;42.158;24.732;2022-07-29T06:53:55;99726.81;;;27.31;65.94
8051;BME280;4068;42.158;24.732;2022-07-29T06:56:22;99730.41;;;27.43;66.41
8051;BME280;4068;42.158;24.732;2022-07-29T06:58:48;99740.38;;;27.68;65.27
8051;BME280;4068;42.158;24.732;2022-07-29T07:01:13;99707.34;;;27.46;65.18
8051;BME280;4068;42.158;24.732;2022-07-29T07:03:39;99712.22;;;27.44;65.71
8051;BME280;4068;42.158;24.732;2022-07-29T07:06:04;99729.19;;;27.58;64.89
8051;BME280;4068;42.158;24.732;2022-07-29T07:08:30;99728.28;;;27.64;65.37
8051;BME280;4068;42.158;24.732;2022-07-29T07:10:55;99723.88;;;27.63;64.96
8051;BME280;4068;42.158;24.732;2022-07-29T07:13:22;99723.97;;;27.86;63.84
8051;BME280;4068;42.158;24.732;2022-07-29T07:15:48;99718.47;;;28.05;63.81
8051;BME280;4068;42.158;24.732;2022-07-29T07:18:14;99713.97;;;28.22;62.76
8051;BME280;4068;42.158;24.732;2022-07-29T07:20:40;99726.91;;;28.51;60.53
8051;BME280;4068;42.158;24.732;2022-07-29T07:23:06;99726.91;;;28.51;60.61
8051;BME280;4068;42.158;24.732;2022-07-29T07:25:32;99723.34;;;28.50;60.71
8051;BME280;4068;42.158;24.732;2022-07-29T07:27:57;99718.50;;;28.64;59.68
8051;BME280;4068;42.158;24.732;2022-07-29T07:30:23;99704.13;;;28.57;59.83
8051;BME280;4068;42.158;24.732;2022-07-29T07:32:48;99719.22;;;28.83;58.94
8051;BME280;4068;42.158;24.732;2022-07-29T07:35:14;99710.06;;;28.54;59.68
8051;BME280;4068;42.158;24.732;2022-07-29T07:37:39;99718.25;;;28.66;59.16
8051;BME280;4068;42.158;24.732;2022-07-29T07:40:10;99693.72;;;28.66;59.13
8051;BME280;4068;42.158;24.732;2022-07-29T07:42:37;99701.50;;;28.98;58.79
8051;BME280;4068;42.158;24.732;2022-07-29T07:45:03;99716.16;;;29.20;57.14
8051;BME280;4068;42.158;24.732;2022-07-29T07:47:30;99702.13;;;29.17;55.02
8051;BME280;4068;42.158;24.732;2022-07-29T07:49:55;99719.09;;;29.31;54.75
8051;BME280;4068;42.158;24.732;2022-07-29T07:52:21;99720.03;;;29.36;53.98
8051;BME280;4068;42.158;24.732;2022-07-29T07:54:47;99711.59;;;29.38;54.58
8051;BME280;4068;42.158;24.732;2022-07-29T07:57:14;99711.84;;;29.36;53.32
8051;BME280;4068;42.158;24.732;2022-07-29T07:59:39;99714.66;;;29.41;52.44
8051;BME280;4068;42.158;24.732;2022-07-29T08:02:05;99708.16;;;29.59;52.42
8051;BME280;4068;42.158;24.732;2022-07-29T08:04:30;99708.09;;;29.71;51.17
8051;BME280;4068;42.158;24.732;2022-07-29T08:06:57;99710.59;;;29.73;51.02
8051;BME280;4068;42.158;24.732;2022-07-29T08:09:24;99707.00;;;29.84;51.10
8051;BME280;4068;42.158;24.732;2022-07-29T08:11:51;99697.97;;;29.84;51.14
8051;BME280;4068;42.158;24.732;2022-07-29T08:14:16;99703.69;;;29.99;48.17
8051;BME280;4068;42.158;24.732;2022-07-29T08:16:42;99709.00;;;30.06;46.52
8051;BME280;4068;42.158;24.732;2022-07-29T08:19:08;99700.81;;;29.89;47.36
8051;BME280;4068;42.158;24.732;2022-07-29T08:21:34;99683.06;;;29.91;47.89
8051;BME280;4068;42.158;24.732;2022-07-29T08:24:00;99705.44;;;30.05;46.00
8051;BME280;4068;42.158;24.732;2022-07-29T08:26:44;99706.50;;;30.04;46.37
8051;BME280;4068;42.158;24.732;2022-07-29T08:29:10;99713.56;;;30.17;46.96
8051;BME280;4068;42.158;24.732;2022-07-29T08:31:36;99703.72;;;30.16;44.60
8051;BME280;4068;42.158;24.732;2022-07-29T08:34:02;99694.97;;;30.36;44.99
8051;BME280;4068;42.158;24.732;2022-07-29T08:36:28;99696.81;;;30.48;44.33
8051;BME280;4068;42.158;24.732;2022-07-29T08:38:54;99697.94;;;30.69;43.52
8051;BME280;4068;42.158;24.732;2022-07-29T08:41:19;99689.84;;;30.79;43.08
8051;BME280;4068;42.158;24.732;2022-07-29T08:43:46;99685.09;;;30.91;40.98
8051;BME280;4068;42.158;24.732;2022-07-29T08:46:11;99683.25;;;30.97;39.78
8051;BME280;4068;42.158;24.732;2022-07-29T08:48:38;99678.00;;;30.95;40.32
8051;BME280;4068;42.158;24.732;2022-07-29T08:51:06;99669.13;;;30.83;40.41
8051;BME280;4068;42.158;24.732;2022-07-29T08:53:32;99673.94;;;30.98;40.65
8051;BME280;4068;42.158;24.732;2022-07-29T08:55:59;99686.13;;;31.07;39.37
8051;BME280;4068;42.158;24.732;2022-07-29T08:58:25;99682.28;;;31.08;38.72
8051;BME280;4068;42.158;24.732;2022-07-29T09:00:53;99683.66;;;31.06;38.97
8051;BME280;4068;42.158;24.732;2022-07-29T09:03:20;99664.91;;;30.97;38.68
8051;BME280;4068;42.158;24.732;2022-07-29T09:05:47;99660.72;;;31.12;38.71
8051;BME280;4068;42.158;24.732;2022-07-29T09:08:14;99667.19;;;31.28;37.76
8051;BME280;4068;42.158;24.732;2022-07-29T09:10:40;99654.97;;;31.41;37.80
8051;BME280;4068;42.158;24.732;2022-07-29T09:13:06;99661.25;;;31.63;37.93
8051;BME280;4068;42.158;24.732;2022-07-29T09:15:31;99644.00;;;31.63;36.86
8051;BME280;4068;42.158;24.732;2022-07-29T09:17:57;99658.94;;;31.55;37.72
8051;BME280;4068;42.158;24.732;2022-07-29T09:20:24;99659.13;;;31.43;37.65
8051;BME280;4068;42.158;24.732;2022-07-29T09:22:51;99634.38;;;31.33;36.00
8051;BME280;4068;42.158;24.732;2022-07-29T09:25:38;99653.81;;;31.59;34.73
8051;BME280;4068;42.158;24.732;2022-07-29T09:28:11;99654.69;;;31.64;35.23
8051;BME280;4068;42.158;24.732;2022-07-29T09:30:51;99638.97;;;31.55;35.85
8051;BME280;4068;42.158;24.732;2022-07-29T09:33:17;99640.53;;;31.78;36.24
8051;BME280;4068;42.158;24.732;2022-07-29T09:35:43;99655.44;;;31.87;37.40
8051;BME280;4068;42.158;24.732;2022-07-29T09:38:12;99649.13;;;31.87;35.59
8051;BME280;4068;42.158;24.732;2022-07-29T09:40:38;99626.16;;;31.93;36.68
8051;BME280;4068;42.158;24.732;2022-07-29T09:43:14;99642.81;;;31.86;36.62
8051;BME280;4068;42.158;24.732;2022-07-29T09:45:39;99642.63;;;31.98;35.53
8051;BME280;4068;42.158;24.732;2022-07-29T09:48:16;99631.97;;;32.01;35.60
8051;BME280;4068;42.158;24.732;2022-07-29T09:50:44;99644.00;;;32.00;35.31
8051;BME280;4068;42.158;24.732;2022-07-29T09:53:10;99628.72;;;32.10;35.81
8051;BME280;4068;42.158;24.732;2022-07-29T09:55:49;99627.88;;;32.09;35.87
8051;BME280;4068;42.158;24.732;2022-07-29T09:58:19;99624.69;;;32.17;36.52
8051;BME280;4068;42.158;24.732;2022-07-29T10:00:46;99621.00;;;32.49;36.87
8051;BME280;4068;42.158;24.732;2022-07-29T10:03:12;99612.28;;;32.52;34.17
8051;BME280;4068;42.158;24.732;2022-07-29T10:05:38;99623.63;;;32.72;32.98
8051;BME280;4068;42.158;24.732;2022-07-29T10:08:04;99625.75;;;32.64;32.58
8051;BME280;4068;42.158;24.732;2022-07-29T10:10:35;99623.56;;;32.61;33.32
8051;BME280;4068;42.158;24.732;2022-07-29T10:13:07;99618.84;;;32.51;34.01
8051;BME280;4068;42.158;24.732;2022-07-29T10:15:37;99613.34;;;32.51;34.78
8051;BME280;4068;42.158;24.732;2022-07-29T10:18:04;99620.00;;;32.66;33.61
8051;BME280;4068;42.158;24.732;2022-07-29T10:20:30;99620.09;;;32.81;33.87
8051;BME280;4068;42.158;24.732;2022-07-29T10:22:55;99608.59;;;32.95;34.39
8051;BME280;4068;42.158;24.732;2022-07-29T10:25:22;99624.56;;;33.13;32.51
8051;BME280;4068;42.158;24.732;2022-07-29T10:27:49;99613.50;;;32.88;32.16
8051;BME280;4068;42.158;24.732;2022-07-29T10:30:17;99606.38;;;32.81;32.46
8051;BME280;4068;42.158;24.732;2022-07-29T10:36:02;99606.44;;;33.17;32.51
8051;BME280;4068;42.158;24.732;2022-07-29T10:38:52;99606.50;;;33.33;32.27
8051;BME280;4068;42.158;24.732;2022-07-29T10:44:20;99599.09;;;33.28;32.60
8051;BME280;4068;42.158;24.732;2022-07-29T10:46:46;99588.66;;;33.25;32.76
8051;BME280;4068;42.158;24.732;2022-07-29T10:49:19;99560.56;;;33.13;33.32
8051;BME280;4068;42.158;24.732;2022-07-29T10:57:15;99575.41;;;33.17;33.72
8051;BME280;4068;42.158;24.732;2022-07-29T10:59:49;99577.00;;;32.92;33.91
8051;BME280;4068;42.158;24.732;2022-07-29T11:05:00;99564.94;;;32.93;33.46
8051;BME280;4068;42.158;24.732;2022-07-29T11:07:26;99560.28;;;33.09;33.56
8051;BME280;4068;42.158;24.732;2022-07-29T11:20:40;99550.16;;;33.41;34.08
8051;BME280;4068;42.158;24.732;2022-07-29T11:23:19;99549.34;;;33.35;34.33
8051;BME280;4068;42.158;24.732;2022-07-29T11:31:16;99541.38;;;33.64;33.66
8051;BME280;4068;42.158;24.732;2022-07-29T11:33:44;99522.13;;;33.59;33.89
8051;BME280;4068;42.158;24.732;2022-07-29T11:36:13;99536.97;;;33.37;35.03
8051;BME280;4068;42.158;24.732;2022-07-29T11:38:39;99534.50;;;33.51;35.03
8051;BME280;4068;42.158;24.732;2022-07-29T11:41:20;99532.28;;;33.74;34.91
8051;BME280;4068;42.158;24.732;2022-07-29T11:43:55;99512.47;;;33.72;34.65
8051;BME280;4068;42.158;24.732;2022-07-29T11:49:25;99527.06;;;33.78;34.54
8051;BME280;4068;42.158;24.732;2022-07-29T11:51:59;99514.69;;;33.85;34.90
8051;BME280;4068;42.158;24.732;2022-07-29T11:54:34;99494.00;;;34.03;34.88
8051;BME280;4068;42.158;24.732;2022-07-29T11:57:00;99501.34;;;34.34;34.29
8051;BME280;4068;42.158;24.732;2022-07-29T11:59:26;99506.72;;;34.60;34.05
8051;BME280;4068;42.158;24.732;2022-07-29T12:01:57;99496.97;;;34.78;34.08
8051;BME280;4068;42.158;24.732;2022-07-29T12:04:23;99480.84;;;35.00;33.35
8051;BME280;4068;42.158;24.732;2022-07-29T12:06:55;99491.44;;;35.17;32.35
8051;BME280;4068;42.158;24.732;2022-07-29T12:09:22;99471.63;;;34.81;32.09
8051;BME280;4068;42.158;24.732;2022-07-29T12:11:58;99495.09;;;34.68;31.75
8051;BME280;4068;42.158;24.732;2022-07-29T12:14:32;99494.69;;;34.45;32.69
8051;BME280;4068;42.158;24.732;2022-07-29T12:16:58;99487.22;;;34.51;31.30
8051;BME280;4068;42.158;24.732;2022-07-29T12:19:25;99485.97;;;34.28;31.71
8051;BME280;4068;42.158;24.732;2022-07-29T12:21:53;99494.44;;;34.36;32.86
8051;BME280;4068;42.158;24.732;2022-07-29T12:24:19;99495.75;;;34.49;32.27
8051;BME280;4068;42.158;24.732;2022-07-29T12:26:53;99462.81;;;34.34;31.41
8051;BME280;4068;42.158;24.732;2022-07-29T12:29:19;99477.00;;;34.56;30.96
8051;BME280;4068;42.158;24.732;2022-07-29T12:31:46;99485.13;;;34.82;30.70
8051;BME280;4068;42.158;24.732;2022-07-29T12:34:13;99481.13;;;34.99;31.28
8051;BME280;4068;42.158;24.732;2022-07-29T12:36:43;99474.00;;;34.98;31.03
8051;BME280;4068;42.158;24.732;2022-07-29T12:39:10;99474.97;;;35.12;30.92
8051;BME280;4068;42.158;24.732;2022-07-29T12:41:37;99477.25;;;35.05;31.21
8051;BME280;4068;42.158;24.732;2022-07-29T12:44:02;99465.63;;;35.08;31.08
8051;BME280;4068;42.158;24.732;2022-07-29T12:46:28;99461.63;;;34.90;31.50
8051;BME280;4068;42.158;24.732;2022-07-29T12:48:54;99460.53;;;34.91;31.61
8051;BME280;4068;42.158;24.732;2022-07-29T12:51:34;99463.59;;;34.89;32.18
8051;BME280;4068;42.158;24.732;2022-07-29T12:56:36;99459.22;;;35.18;31.34
8051;BME280;4068;42.158;24.732;2022-07-29T12:59:12;99447.94;;;35.14;31.14
8051;BME280;4068;42.158;24.732;2022-07-29T13:01:38;99450.53;;;35.00;30.91
8051;BME280;4068;42.158;24.732;2022-07-29T13:04:04;99450.47;;;35.11;31.74
8051;BME280;4068;42.158;24.732;2022-07-29T13:09:13;99441.09;;;35.41;31.86
8051;BME280;4068;42.158;24.732;2022-07-29T13:11:47;99443.13;;;35.59;31.60
8051;BME280;4068;42.158;24.732;2022-07-29T13:14:29;99415.91;;;35.23;31.45
8051;BME280;4068;42.158;24.732;2022-07-29T13:17:13;99435.72;;;35.31;31.77
8051;BME280;4068;42.158;24.732;2022-07-29T13:19:46;99408.75;;;35.22;31.90
8051;BME280;4068;42.158;24.732;2022-07-29T13:22:14;99422.88;;;35.45;31.86
8051;BME280;4068;42.158;24.732;2022-07-29T13:27:18;99427.16;;;35.56;31.63
8051;BME280;4068;42.158;24.732;2022-07-29T13:29:44;99419.03;;;35.70;31.44
8051;BME280;4068;42.158;24.732;2022-07-29T13:32:09;99415.66;;;35.73;31.76
8051;BME280;4068;42.158;24.732;2022-07-29T13:34:34;99394.38;;;35.79;31.78
8051;BME280;4068;42.158;24.732;2022-07-29T13:37:00;99405.41;;;36.03;31.15
8051;BME280;4068;42.158;24.732;2022-07-29T13:39:25;99411.22;;;36.02;31.20
8051;BME280;4068;42.158;24.732;2022-07-29T13:41:51;99389.97;;;35.78;31.47
8051;BME280;4068;42.158;24.732;2022-07-29T13:44:16;99397.63;;;35.86;31.30
8051;BME280;4068;42.158;24.732;2022-07-29T13:46:42;99382.28;;;35.75;31.71
8051;BME280;4068;42.158;24.732;2022-07-29T13:49:07;99395.31;;;35.93;31.40
8051;BME280;4068;42.158;24.732;2022-07-29T13:51:33;99392.41;;;35.85;31.11
8051;BME280;4068;42.158;24.732;2022-07-29T13:53:58;99380.81;;;35.83;31.14
8051;BME280;4068;42.158;24.732;2022-07-29T13:56:23;99375.75;;;35.66;31.80
8051;BME280;4068;42.158;24.732;2022-07-29T13:58:49;99380.75;;;35.88;31.72
8051;BME280;4068;42.158;24.732;2022-07-29T14:01:14;99379.88;;;36.11;31.58
8051;BME280;4068;42.158;24.732;2022-07-29T14:03:40;99387.88;;;36.13;31.30
8051;BME280;4068;42.158;24.732;2022-07-29T14:06:08;99349.63;;;35.87;30.73
8051;BME280;4068;42.158;24.732;2022-07-29T14:08:34;99382.94;;;35.91;30.64
8051;BME280;4068;42.158;24.732;2022-07-29T14:10:59;99376.81;;;35.94;31.21